Time;durP1;ratioP1;P1;durP2;ratioP2;P2;SDS_P1;SDS_P2;PMS_P1;PMS_P2;Temp;Humidity;BMP_temperature;BMP_pressure;BME280_temperature;BME280_humidity;BME280_pressure;Samples;Min_cycle;Max_cycle;Signal;HPM_P1;HPM_P2
2022/03/07 00:01:50;;;;;;;;;;;;;;;2.36;47.38;99782.03;5317784;27;33479;-86
2022/03/07 00:04:21;;;;;;;;;;;;;;;2.22;47.59;99789.41;5311079;27;34230;-90
2022/03/07 00:06:49;;;;;;;;;;;;;;;2.24;47.59;99779.22;5290887;27;34824;-90
2022/03/07 00:09:17;;;;;;;;;;;;;;;2.28;47.55;99788.72;5310978;27;33373;-89
2022/03/07 00:11:46;;;;;;;;;;;;;;;2.12;48.00;99788.34;5291942;27;34347;-90
2022/03/07 00:14:15;;;;;;;;;;;;;;;2.13;47.96;99790.09;5320650;27;35027;-87
2022/03/07 00:16:43;;;;;;;;;;;;;;;2.30;47.95;99793.03;5312521;26;33782;-89
2022/03/07 00:19:12;;;;;;;;;;;;;;;1.90;48.19;99793.81;5293164;27;33267;-87
2022/03/07 00:21:41;;;;;;;;;;;;;;;1.86;48.50;99792.00;5313319;27;35440;-87
2022/03/07 00:24:10;;;;;;;;;;;;;;;1.97;48.44;99788.00;5291441;27;34759;-88
2022/03/07 00:26:39;;;;;;;;;;;;;;;2.09;48.11;99790.00;5313306;27;33840;-87
2022/03/07 00:29:07;;;;;;;;;;;;;;;2.25;47.54;99788.66;5301156;27;31902;-90
2022/03/07 00:31:37;;;;;;;;;;;;;;;2.28;47.23;99796.38;5295191;27;34069;-90
2022/03/07 00:34:07;;;;;;;;;;;;;;;2.23;47.73;99795.41;5313084;27;34293;-87
2022/03/07 00:36:35;;;;;;;;;;;;;;;2.47;46.92;99795.94;5293160;27;34463;-87
2022/03/07 00:39:05;;;;;;;;;;;;;;;2.53;46.86;99795.19;5312608;27;34182;-88
2022/03/07 00:41:34;;;;;;;;;;;;;;;2.45;47.04;99789.06;5316310;27;34986;-87
2022/03/07 00:44:02;;;;;;;;;;;;;;;2.04;48.03;99795.00;5311198;27;35380;-87
2022/03/07 00:46:31;;;;;;;;;;;;;;;1.83;48.27;99790.25;5310850;27;34173;-87
2022/03/07 00:49:03;;;;;;;;;;;;;;;1.90;48.25;99787.00;5291056;27;33368;-87
2022/03/07 00:51:32;;;;;;;;;;;;;;;1.63;49.03;99792.31;5290845;27;33965;-87
2022/03/07 00:54:01;;;;;;;;;;;;;;;1.63;49.19;99786.34;5315525;27;35471;-87
2022/03/07 00:56:31;;;;;;;;;;;;;;;1.86;48.57;99794.56;5290958;27;34669;-87
2022/03/07 00:58:59;;;;;;;;;;;;;;;1.86;48.80;99789.44;5311216;27;33049;-87
2022/03/07 01:01:28;;;;;;;;;;;;;;;1.89;48.82;99789.53;5290942;27;34942;-87
2022/03/07 01:03:57;;;;;;;;;;;;;;;1.91;48.67;99785.34;5311062;27;33280;-88
2022/03/07 01:06:25;;;;;;;;;;;;;;;1.95;48.37;99788.81;5318393;27;33880;-87
2022/03/07 01:08:54;;;;;;;;;;;;;;;2.08;48.26;99784.00;5318188;27;34189;-87
2022/03/07 01:11:23;;;;;;;;;;;;;;;2.01;48.37;99781.28;5313713;27;33712;-87
2022/03/07 01:13:53;;;;;;;;;;;;;;;1.81;48.80;99783.34;5314026;27;34909;-87
2022/03/07 01:16:21;;;;;;;;;;;;;;;1.99;48.28;99785.50;5313471;26;33412;-87
2022/03/07 01:18:50;;;;;;;;;;;;;;;2.26;47.75;99792.91;5294131;27;33393;-87
2022/03/07 01:21:19;;;;;;;;;;;;;;;2.24;47.55;99781.78;5299713;27;34260;-90
2022/03/07 01:23:48;;;;;;;;;;;;;;;2.55;47.03;99786.72;5290370;27;35436;-87
2022/03/07 01:26:16;;;;;;;;;;;;;;;2.43;47.34;99783.91;5312798;27;34186;-87
2022/03/07 01:28:48;;;;;;;;;;;;;;;2.68;46.51;99795.53;5311604;27;34080;-87
2022/03/07 01:31:18;;;;;;;;;;;;;;;2.62;46.74;99791.97;5291585;27;34117;-87
2022/03/07 01:33:46;;;;;;;;;;;;;;;2.44;46.99;99785.66;5321032;27;34269;-87
2022/03/07 01:36:15;;;;;;;;;;;;;;;2.21;47.74;99784.28;5316265;27;34201;-89
2022/03/07 01:38:43;;;;;;;;;;;;;;;2.06;48.48;99779.69;5311739;27;33894;-87
2022/03/07 01:41:12;;;;;;;;;;;;;;;2.22;48.05;99773.19;5291625;27;34595;-91
2022/03/07 01:43:41;;;;;;;;;;;;;;;2.85;46.03;99774.47;5311747;27;34295;-87
2022/03/07 01:46:10;;;;;;;;;;;;;;;2.68;46.39;99781.84;5319692;27;33936;-87
2022/03/07 01:48:40;;;;;;;;;;;;;;;2.51;46.77;99776.38;5293447;27;32651;-87
2022/03/07 01:51:10;;;;;;;;;;;;;;;2.64;46.40;99775.81;5313392;27;33786;-87
2022/03/07 01:53:39;;;;;;;;;;;;;;;2.62;46.69;99774.91;5315843;27;34270;-87
2022/03/07 01:56:08;;;;;;;;;;;;;;;2.46;46.95;99773.72;5312333;27;34176;-87
2022/03/07 01:58:37;;;;;;;;;;;;;;;2.56;46.76;99774.75;5296008;27;34367;-86
2022/03/07 02:01:06;;;;;;;;;;;;;;;2.31;47.19;99765.72;5298921;27;34172;-87
2022/03/07 02:03:35;;;;;;;;;;;;;;;2.29;47.38;99770.78;5313671;27;34323;-87
2022/03/07 02:06:05;;;;;;;;;;;;;;;2.13;47.62;99773.88;5313652;27;33588;-87
2022/03/07 02:08:34;;;;;;;;;;;;;;;2.05;48.21;99770.28;5313560;27;33442;-87
2022/03/07 02:11:03;;;;;;;;;;;;;;;1.98;48.45;99771.84;5293432;27;32742;-90
2022/03/07 02:13:35;;;;;;;;;;;;;;;1.98;48.29;99768.41;5319437;27;33700;-85
2022/03/07 02:16:04;;;;;;;;;;;;;;;2.09;47.95;99770.38;5291364;26;33979;-86
2022/03/07 02:18:38;;;;;;;;;;;;;;;2.18;47.99;99777.41;5312914;27;33211;-89
2022/03/07 02:21:10;;;;;;;;;;;;;;;2.17;47.86;99774.78;5313574;27;34143;-87
2022/03/07 02:23:40;;;;;;;;;;;;;;;2.13;47.90;99771.31;5310682;27;35214;-87
2022/03/07 02:26:10;;;;;;;;;;;;;;;2.03;48.21;99760.03;5317882;27;33889;-89
2022/03/07 02:28:40;;;;;;;;;;;;;;;2.13;48.04;99761.94;5317925;27;33038;-87
2022/03/07 02:31:08;;;;;;;;;;;;;;;2.37;47.02;99764.97;5312856;27;34535;-89
2022/03/07 02:33:41;;;;;;;;;;;;;;;2.14;47.55;99765.34;5293653;27;35507;-87
2022/03/07 02:36:09;;;;;;;;;;;;;;;1.91;48.39;99758.03;5293396;27;32034;-87
2022/03/07 02:38:38;;;;;;;;;;;;;;;2.29;47.63;99759.69;5313129;27;33234;-87
2022/03/07 02:41:08;;;;;;;;;;;;;;;2.10;47.88;99763.56;5319605;27;34652;-87
2022/03/07 02:43:37;;;;;;;;;;;;;;;2.14;47.97;99766.22;5313355;27;32940;-86
2022/03/07 02:46:05;;;;;;;;;;;;;;;2.18;47.80;99764.59;5293591;27;35379;-87
2022/03/07 02:48:34;;;;;;;;;;;;;;;2.37;47.47;99765.88;5294622;27;33056;-88
2022/03/07 02:51:03;;;;;;;;;;;;;;;2.29;47.52;99769.94;5313023;27;33860;-88
2022/03/07 02:53:32;;;;;;;;;;;;;;;2.29;47.65;99763.13;5317081;27;34842;-87
2022/03/07 02:56:00;;;;;;;;;;;;;;;2.31;47.55;99774.25;5312544;27;34153;-87
2022/03/07 02:58:31;;;;;;;;;;;;;;;2.29;47.70;99769.94;5310268;27;33141;-90
2022/03/07 03:01:00;;;;;;;;;;;;;;;1.85;48.31;99775.78;5314365;27;34196;-88
2022/03/07 03:03:29;;;;;;;;;;;;;;;2.05;48.16;99783.91;5313231;27;34180;-87
2022/03/07 03:05:58;;;;;;;;;;;;;;;1.97;48.44;99782.91;5320022;27;34229;-87
2022/03/07 03:08:26;;;;;;;;;;;;;;;1.89;48.41;99785.28;5313781;27;33906;-87
2022/03/07 03:10:55;;;;;;;;;;;;;;;1.77;48.60;99785.00;5313460;27;35013;-87
2022/03/07 03:13:24;;;;;;;;;;;;;;;2.12;47.89;99779.81;5314843;27;35048;-87
2022/03/07 03:15:54;;;;;;;;;;;;;;;1.74;48.74;99790.03;5293574;26;35368;-86
2022/03/07 03:18:23;;;;;;;;;;;;;;;1.74;48.83;99786.59;5293143;27;33834;-87
2022/03/07 03:20:53;;;;;;;;;;;;;;;1.62;49.33;99792.28;5299282;27;32658;-87
2022/03/07 03:23:23;;;;;;;;;;;;;;;1.59;49.41;99785.41;5292120;27;33594;-87
2022/03/07 03:25:55;;;;;;;;;;;;;;;1.58;49.61;99799.03;5314122;27;34307;-87
2022/03/07 03:28:23;;;;;;;;;;;;;;;1.46;49.99;99802.13;5313638;27;32778;-86
2022/03/07 03:30:54;;;;;;;;;;;;;;;1.64;49.35;99803.41;5293429;27;34390;-88
2022/03/07 03:33:22;;;;;;;;;;;;;;;1.53;49.56;99800.59;5320720;27;34003;-87
2022/03/07 03:35:51;;;;;;;;;;;;;;;1.27;50.27;99800.81;5313109;27;34138;-87
2022/03/07 03:38:19;;;;;;;;;;;;;;;1.30;50.59;99801.72;5294146;27;32656;-89
2022/03/07 03:40:47;;;;;;;;;;;;;;;1.20;50.72;99809.13;5313628;27;34040;-90
2022/03/07 03:43:16;;;;;;;;;;;;;;;0.99;51.32;99806.00;5313617;27;33992;-86
2022/03/07 03:45:44;;;;;;;;;;;;;;;1.01;51.16;99804.34;5299779;27;34044;-86
2022/03/07 03:48:16;;;;;;;;;;;;;;;1.24;50.68;99810.09;5313405;27;33026;-86
2022/03/07 03:50:44;;;;;;;;;;;;;;;0.85;51.70;99803.09;5312388;27;33737;-87
2022/03/07 03:53:13;;;;;;;;;;;;;;;0.62;52.68;99803.28;5314490;27;34049;-87
2022/03/07 03:55:41;;;;;;;;;;;;;;;0.78;52.16;99809.72;5314359;27;33748;-86
2022/03/07 03:58:10;;;;;;;;;;;;;;;0.71;52.34;99815.47;5319945;27;33138;-86
2022/03/07 04:00:39;;;;;;;;;;;;;;;0.76;52.02;99808.81;5317120;27;34819;-87
2022/03/07 04:03:08;;;;;;;;;;;;;;;0.81;52.21;99814.03;5313144;27;35314;-87
2022/03/07 04:05:38;;;;;;;;;;;;;;;1.05;51.19;99816.41;5312939;27;33986;-85
2022/03/07 04:08:06;;;;;;;;;;;;;;;1.20;51.11;99814.25;5294512;27;34565;-87
2022/03/07 04:10:35;;;;;;;;;;;;;;;1.22;50.75;99807.50;5313812;27;34138;-90
2022/03/07 04:13:03;;;;;;;;;;;;;;;1.45;50.31;99809.75;5301049;27;34358;-87
2022/03/07 04:15:32;;;;;;;;;;;;;;;1.38;50.16;99806.22;5293825;27;31756;-89
2022/03/07 04:18:00;;;;;;;;;;;;;;;1.54;49.94;99810.00;5292827;27;33141;-87
2022/03/07 04:20:29;;;;;;;;;;;;;;;1.75;48.97;99812.22;5292629;27;33658;-87
2022/03/07 04:22:58;;;;;;;;;;;;;;;1.52;49.83;99809.09;5312256;27;34320;-87
2022/03/07 04:25:28;;;;;;;;;;;;;;;1.86;49.04;99804.78;5320430;27;33628;-89
2022/03/07 04:27:56;;;;;;;;;;;;;;;1.84;48.97;99803.91;5313838;27;33434;-87
2022/03/07 04:30:27;;;;;;;;;;;;;;;1.90;48.85;99804.91;5314464;27;34558;-87
2022/03/07 04:32:55;;;;;;;;;;;;;;;2.04;48.44;99809.50;5294555;27;34682;-91
2022/03/07 04:35:24;;;;;;;;;;;;;;;1.89;48.78;99810.00;5293386;27;35446;-87
2022/03/07 04:37:54;;;;;;;;;;;;;;;1.89;48.88;99810.00;5299940;27;34209;-87
2022/03/07 04:40:24;;;;;;;;;;;;;;;2.07;48.24;99812.97;5292639;27;34813;-87
2022/03/07 04:42:55;;;;;;;;;;;;;;;1.95;48.59;99807.56;5296620;27;34408;-88
2022/03/07 04:45:25;;;;;;;;;;;;;;;1.81;48.73;99807.28;5314238;27;33903;-87
2022/03/07 04:47:53;;;;;;;;;;;;;;;1.80;48.48;99802.97;5292717;27;33577;-87
2022/03/07 04:50:22;;;;;;;;;;;;;;;2.07;48.22;99815.53;5316592;27;33892;-87
2022/03/07 04:52:50;;;;;;;;;;;;;;;1.80;48.72;99804.66;5298003;27;34748;-87
2022/03/07 04:55:19;;;;;;;;;;;;;;;1.96;48.33;99811.88;5313936;27;34882;-87
2022/03/07 04:57:48;;;;;;;;;;;;;;;1.88;48.38;99808.25;5293928;27;32866;-87
2022/03/07 05:00:17;;;;;;;;;;;;;;;1.88;48.73;99811.66;5294357;27;34042;-87
2022/03/07 05:02:46;;;;;;;;;;;;;;;2.07;48.24;99809.56;5294141;27;32661;-87
2022/03/07 05:05:14;;;;;;;;;;;;;;;1.99;48.47;99804.25;5299591;27;32588;-87
2022/03/07 05:07:43;;;;;;;;;;;;;;;2.28;47.60;99804.06;5294306;27;33856;-87
2022/03/07 05:10:11;;;;;;;;;;;;;;;2.11;47.99;99809.66;5313681;27;34328;-86
2022/03/07 05:12:40;;;;;;;;;;;;;;;2.04;47.78;99812.91;5313247;27;33792;-87
2022/03/07 05:15:10;;;;;;;;;;;;;;;2.08;47.70;99809.59;5313600;27;34522;-87
2022/03/07 05:17:42;;;;;;;;;;;;;;;1.83;48.55;99810.72;5299817;27;31286;-87
2022/03/07 05:20:11;;;;;;;;;;;;;;;1.84;49.06;99814.16;5313473;27;34006;-87
2022/03/07 05:22:40;;;;;;;;;;;;;;;1.88;49.06;99819.34;5312121;27;33849;-87
2022/03/07 05:25:08;;;;;;;;;;;;;;;1.86;49.07;99815.03;5293510;27;32319;-87
2022/03/07 05:27:38;;;;;;;;;;;;;;;2.04;48.37;99814.62;5292910;27;34708;-87
2022/03/07 05:30:07;;;;;;;;;;;;;;;1.95;48.69;99811.84;5299873;27;32261;-88
2022/03/07 05:32:37;;;;;;;;;;;;;;;2.07;48.33;99814.66;5313595;27;34976;-87
2022/03/07 05:35:06;;;;;;;;;;;;;;;2.06;48.29;99818.06;5312291;27;35444;-87
2022/03/07 05:37:35;;;;;;;;;;;;;;;1.97;48.90;99823.84;5314328;27;33318;-87
2022/03/07 05:40:03;;;;;;;;;;;;;;;2.23;48.06;99821.88;5293759;27;35457;-87
2022/03/07 05:42:32;;;;;;;;;;;;;;;2.02;48.56;99822.25;5312908;27;35076;-87
2022/03/07 05:45:01;;;;;;;;;;;;;;;2.04;48.42;99818.03;5320599;27;34121;-87
2022/03/07 05:47:29;;;;;;;;;;;;;;;2.12;48.35;99821.62;5313056;27;33174;-87
2022/03/07 05:49:59;;;;;;;;;;;;;;;1.99;48.49;99821.31;5293505;27;32066;-87
2022/03/07 05:52:28;;;;;;;;;;;;;;;2.12;48.34;99824.19;5295510;27;35476;-86
2022/03/07 05:54:57;;;;;;;;;;;;;;;2.13;48.45;99820.81;5313452;27;34056;-88
2022/03/07 05:57:25;;;;;;;;;;;;;;;2.15;48.40;99823.41;5318698;27;32863;-88
2022/03/07 05:59:54;;;;;;;;;;;;;;;2.02;48.83;99822.25;5292198;27;32524;-87
2022/03/07 06:02:22;;;;;;;;;;;;;;;2.22;48.36;99824.38;5291463;27;32937;-87
2022/03/07 06:04:52;;;;;;;;;;;;;;;2.11;48.70;99822.47;5293742;27;34184;-87
2022/03/07 06:07:21;;;;;;;;;;;;;;;2.39;47.60;99829.88;5312722;27;32982;-86
2022/03/07 06:09:50;;;;;;;;;;;;;;;1.62;49.48;99821.31;5300249;27;32474;-88
2022/03/07 06:12:19;;;;;;;;;;;;;;;2.02;48.48;99824.81;5313346;27;33743;-87
2022/03/07 06:14:47;;;;;;;;;;;;;;;1.97;48.89;99828.94;5313359;27;34295;-88
2022/03/07 06:17:15;;;;;;;;;;;;;;;1.79;49.29;99825.94;5291277;27;34457;-89
2022/03/07 06:19:44;;;;;;;;;;;;;;;1.97;48.78;99830.66;5292931;27;34962;-88
2022/03/07 06:22:12;;;;;;;;;;;;;;;1.96;49.12;99837.47;5318145;27;34840;-87
2022/03/07 06:24:42;;;;;;;;;;;;;;;2.19;48.49;99834.56;5294864;27;34314;-87
2022/03/07 06:27:10;;;;;;;;;;;;;;;2.19;48.51;99832.00;5311696;27;33976;-87
2022/03/07 06:29:39;;;;;;;;;;;;;;;2.09;48.72;99833.50;5310870;27;33900;-87
2022/03/07 06:32:08;;;;;;;;;;;;;;;2.13;48.70;99845.53;5312213;27;34324;-88
2022/03/07 06:34:36;;;;;;;;;;;;;;;1.95;49.21;99845.09;5320324;27;33544;-87
2022/03/07 06:37:08;;;;;;;;;;;;;;;2.34;48.16;99846.03;5319256;27;33394;-88
2022/03/07 06:39:37;;;;;;;;;;;;;;;2.33;48.22;99846.84;5293776;27;34531;-87
2022/03/07 06:42:07;;;;;;;;;;;;;;;2.42;48.20;99845.34;5313779;27;35720;-88
2022/03/07 06:44:39;;;;;;;;;;;;;;;2.44;48.17;99849.66;5293627;27;33915;-87
2022/03/07 06:47:08;;;;;;;;;;;;;;;2.43;48.31;99847.91;5317219;27;33304;-86
2022/03/07 06:49:37;;;;;;;;;;;;;;;2.16;48.78;99844.75;5323958;27;34147;-87
2022/03/07 06:52:05;;;;;;;;;;;;;;;2.17;49.25;99844.75;5314660;27;34333;-88
2022/03/07 06:54:34;;;;;;;;;;;;;;;2.40;48.76;99855.53;5313586;27;34437;-86
2022/03/07 06:57:03;;;;;;;;;;;;;;;2.24;48.86;99851.75;5314411;27;33003;-87
2022/03/07 06:59:33;;;;;;;;;;;;;;;2.61;48.42;99851.69;5313354;27;34721;-88
2022/03/07 07:02:02;;;;;;;;;;;;;;;2.67;47.84;99851.84;5318817;27;34858;-86
2022/03/07 07:04:30;;;;;;;;;;;;;;;2.69;47.47;99863.84;5312721;27;34172;-87
2022/03/07 07:06:59;;;;;;;;;;;;;;;2.40;48.29;99855.53;5292676;27;32918;-86
2022/03/07 07:09:28;;;;;;;;;;;;;;;2.73;47.22;99857.06;5313561;27;33969;-87
2022/03/07 07:11:56;;;;;;;;;;;;;;;2.55;48.06;99853.31;5314659;27;34989;-87
2022/03/07 07:14:25;;;;;;;;;;;;;;;2.55;48.04;99852.44;5319926;27;34498;-87
2022/03/07 07:16:55;;;;;;;;;;;;;;;2.65;48.33;99856.06;5294003;27;33824;-87
2022/03/07 07:19:23;;;;;;;;;;;;;;;2.58;48.01;99859.31;5296536;27;33042;-87
2022/03/07 07:21:53;;;;;;;;;;;;;;;3.04;47.07;99858.56;5295775;27;34041;-88
2022/03/07 07:24:22;;;;;;;;;;;;;;;2.77;47.18;99859.75;5311266;27;33697;-88
2022/03/07 07:26:50;;;;;;;;;;;;;;;3.04;46.76;99860.28;5292509;27;34254;-86
2022/03/07 07:29:19;;;;;;;;;;;;;;;2.93;47.12;99858.38;5319401;27;34256;-86
2022/03/07 07:31:48;;;;;;;;;;;;;;;3.11;47.04;99869.81;5311260;27;34272;-85
2022/03/07 07:34:17;;;;;;;;;;;;;;;3.34;46.41;99873.69;5314900;27;34218;-87
2022/03/07 07:36:46;;;;;;;;;;;;;;;3.40;46.64;99876.34;5313809;27;33169;-86
2022/03/07 07:39:14;;;;;;;;;;;;;;;3.58;45.59;99887.81;5312959;27;34691;-86
2022/03/07 07:41:43;;;;;;;;;;;;;;;3.50;45.58;99892.78;5300332;27;34733;-88
2022/03/07 07:44:11;;;;;;;;;;;;;;;3.44;45.64;99885.00;5314518;27;33896;-86
2022/03/07 07:46:40;;;;;;;;;;;;;;;3.42;45.85;99890.06;5313219;27;33029;-87
2022/03/07 07:49:08;;;;;;;;;;;;;;;3.63;45.56;99892.19;5315411;27;34981;-87
2022/03/07 07:51:38;;;;;;;;;;;;;;;3.65;45.65;99881.97;5312930;27;34013;-88
2022/03/07 07:54:07;;;;;;;;;;;;;;;3.76;44.54;99888.13;5317934;27;33496;-86
2022/03/07 07:56:35;;;;;;;;;;;;;;;3.55;44.51;99888.63;5313456;27;33023;-88
2022/03/07 07:59:04;;;;;;;;;;;;;;;2.91;46.04;99885.66;5292997;27;34151;-88
2022/03/07 08:01:33;;;;;;;;;;;;;;;2.96;46.88;99893.44;5313722;27;34311;-87
2022/03/07 08:04:03;;;;;;;;;;;;;;;3.15;46.59;99903.22;5312575;27;33543;-88
2022/03/07 08:06:32;;;;;;;;;;;;;;;3.46;45.64;99906.41;5299310;27;33285;-86
2022/03/07 08:09:03;;;;;;;;;;;;;;;3.27;46.42;99914.56;5313641;27;34260;-86
2022/03/07 08:11:32;;;;;;;;;;;;;;;3.55;46.16;99921.09;5314242;27;34397;-87
2022/03/07 08:14:00;;;;;;;;;;;;;;;3.94;44.09;99920.97;5313043;27;34071;-88
2022/03/07 08:16:29;;;;;;;;;;;;;;;3.68;44.63;99923.06;5292582;27;32757;-86
2022/03/07 08:18:58;;;;;;;;;;;;;;;3.28;45.34;99918.84;5313724;27;33885;-86
2022/03/07 08:21:26;;;;;;;;;;;;;;;3.20;46.03;99914.44;5320697;27;33934;-86
2022/03/07 08:23:55;;;;;;;;;;;;;;;3.24;45.48;99920.50;5293485;27;33724;-86
2022/03/07 08:26:25;;;;;;;;;;;;;;;2.42;47.50;99920.44;5294307;27;31507;-88
2022/03/07 08:28:53;;;;;;;;;;;;;;;2.92;46.76;99919.81;5293354;27;34129;-87
2022/03/07 08:31:22;;;;;;;;;;;;;;;2.44;47.80;99917.91;5312833;27;34205;-87
2022/03/07 08:33:50;;;;;;;;;;;;;;;2.74;46.92;99908.34;5299404;27;31992;-86
2022/03/07 08:36:19;;;;;;;;;;;;;;;2.73;46.63;99910.88;5312152;27;33878;-86
2022/03/07 08:38:47;;;;;;;;;;;;;;;2.99;46.42;99899.47;5311829;27;34277;-85
2022/03/07 08:41:16;;;;;;;;;;;;;;;2.65;46.66;99895.34;5293407;27;34294;-86
2022/03/07 08:43:48;;;;;;;;;;;;;;;2.56;47.77;99888.34;5313489;27;34060;-86
2022/03/07 08:46:17;;;;;;;;;;;;;;;2.95;46.79;99886.59;5320876;27;34110;-86
2022/03/07 08:48:46;;;;;;;;;;;;;;;3.34;45.89;99890.78;5312693;27;34207;-85
2022/03/07 08:51:16;;;;;;;;;;;;;;;3.27;45.86;99894.06;5311188;27;34169;-86
2022/03/07 08:53:47;;;;;;;;;;;;;;;3.54;45.22;99889.44;5310956;27;34581;-86
2022/03/07 08:56:16;;;;;;;;;;;;;;;3.78;44.47;99899.28;5290864;27;31787;-88
2022/03/07 08:58:56;;;;;;;;;;;;;;;3.84;45.12;99894.28;5311263;27;33928;-86
2022/03/07 09:01:24;;;;;;;;;;;;;;;4.14;43.76;99898.19;5317471;27;33799;-86
2022/03/07 09:03:53;;;;;;;;;;;;;;;4.11;44.08;99893.00;5311254;27;33810;-86
2022/03/07 09:06:22;;;;;;;;;;;;;;;4.16;43.25;99901.63;5310283;27;33374;-85
2022/03/07 09:08:50;;;;;;;;;;;;;;;4.26;43.02;99893.22;5308059;27;35150;-86
2022/03/07 09:11:23;;;;;;;;;;;;;;;3.76;43.89;99897.53;5310867;27;33201;-87
2022/03/07 09:13:52;;;;;;;;;;;;;;;3.78;44.47;99899.28;5317151;27;34277;-87
2022/03/07 09:16:22;;;;;;;;;;;;;;;3.83;44.23;99883.97;5310670;26;33291;-86
2022/03/07 09:18:51;;;;;;;;;;;;;;;3.98;43.94;99884.22;5286878;27;35450;-86
2022/03/07 09:21:19;;;;;;;;;;;;;;;3.61;44.36;99891.28;5288635;27;33729;-86
2022/03/07 09:23:48;;;;;;;;;;;;;;;3.73;44.63;99890.66;5287900;27;34352;-86
2022/03/07 09:26:16;;;;;;;;;;;;;;;3.61;44.49;99893.84;5296793;27;33146;-85
2022/03/07 09:28:45;;;;;;;;;;;;;;;3.12;46.22;99884.38;5290053;27;33744;-86
2022/03/07 09:31:14;;;;;;;;;;;;;;;3.52;45.36;99885.13;5287306;27;34614;-86
2022/03/07 09:33:44;;;;;;;;;;;;;;;3.22;45.50;99885.44;5288764;27;34277;-88
2022/03/07 09:36:12;;;;;;;;;;;;;;;3.37;45.59;99894.25;5291138;27;34556;-86
2022/03/07 09:38:40;;;;;;;;;;;;;;;3.21;45.89;99889.66;5293189;27;35077;-86
2022/03/07 09:41:09;;;;;;;;;;;;;;;3.39;45.58;99887.47;5295280;27;32612;-85
2022/03/07 09:43:37;;;;;;;;;;;;;;;3.53;45.22;99886.87;5289833;27;31764;-87
2022/03/07 09:46:06;;;;;;;;;;;;;;;3.45;45.79;99894.41;5290412;27;33472;-88
2022/03/07 09:48:35;;;;;;;;;;;;;;;3.57;45.27;99881.78;5307845;27;34143;-87
2022/03/07 09:51:05;;;;;;;;;;;;;;;3.87;44.29;99878.06;5291090;27;34877;-87
2022/03/07 09:53:33;;;;;;;;;;;;;;;3.51;45.47;99886.84;5295704;27;31920;-86
2022/03/07 09:56:02;;;;;;;;;;;;;;;3.37;45.73;99875.44;5289629;27;31987;-87
2022/03/07 09:58:31;;;;;;;;;;;;;;;3.09;45.67;99880.03;5291169;27;33857;-86
2022/03/07 10:01:09;;;;;;;;;;;;;;;3.13;46.39;99880.97;5288910;27;32878;-85
2022/03/07 10:03:38;;;;;;;;;;;;;;;3.22;46.26;99881.16;5291226;27;34312;-87
2022/03/07 10:06:12;;;;;;;;;;;;;;;3.38;45.79;99888.31;5298033;27;34112;-87
2022/03/07 10:08:51;;;;;;;;;;;;;;;3.39;45.63;99884.91;5295718;27;33953;-89
2022/03/07 10:11:19;;;;;;;;;;;;;;;3.02;46.01;99887.56;5291155;27;34063;-85
2022/03/07 10:13:51;;;;;;;;;;;;;;;2.74;46.69;99881.88;5291353;27;33510;-87
2022/03/07 10:16:21;;;;;;;;;;;;;;;2.82;47.11;99876.91;5289036;27;34283;-87
2022/03/07 10:18:50;;;;;;;;;;;;;;;3.15;46.01;99885.28;5289298;27;31614;-88
2022/03/07 10:21:24;;;;;;;;;;;;;;;3.22;46.17;99882.88;5295894;27;31973;-86
2022/03/07 10:23:53;;;;;;;;;;;;;;;3.18;46.33;99890.47;5290565;27;34645;-86
2022/03/07 10:26:21;;;;;;;;;;;;;;;2.94;47.05;99869.47;5289397;27;33802;-86
2022/03/07 10:28:53;;;;;;;;;;;;;;;2.87;46.87;99873.59;5288486;27;34044;-88
2022/03/07 10:31:39;;;;;;;;;;;;;;;2.85;47.32;99880.41;5288045;27;32804;-86
2022/03/07 10:34:15;;;;;;;;;;;;;;;3.35;46.49;99874.56;5289973;27;33693;-86
2022/03/07 10:36:46;;;;;;;;;;;;;;;3.33;46.24;99879.63;5296574;27;34084;-86
2022/03/07 10:39:16;;;;;;;;;;;;;;;3.74;45.20;99866.69;5290963;27;34047;-86
2022/03/07 10:41:46;;;;;;;;;;;;;;;3.67;45.73;99867.44;5290860;27;33521;-87
2022/03/07 10:44:23;;;;;;;;;;;;;;;3.73;45.15;99862.41;5290628;27;34510;-86
2022/03/07 10:46:52;;;;;;;;;;;;;;;3.83;45.11;99861.72;5288559;27;33638;-86
2022/03/07 10:49:21;;;;;;;;;;;;;;;3.83;45.05;99861.72;5290320;27;34163;-86
2022/03/07 10:51:54;;;;;;;;;;;;;;;3.89;44.99;99845.59;5294944;27;34516;-87
2022/03/07 10:54:23;;;;;;;;;;;;;;;3.64;44.68;99842.59;5290942;27;33701;-87
2022/03/07 10:56:52;;;;;;;;;;;;;;;3.35;45.44;99848.91;5294776;27;34069;-87
2022/03/07 10:59:27;;;;;;;;;;;;;;;3.27;45.44;99841.09;5291097;27;33745;-86
2022/03/07 11:01:59;;;;;;;;;;;;;;;3.36;45.49;99840.41;5291923;27;34668;-86
2022/03/07 11:04:27;;;;;;;;;;;;;;;3.08;46.52;99836.44;5298525;27;34290;-86
2022/03/07 11:06:58;;;;;;;;;;;;;;;3.52;45.75;99823.56;5294643;27;33999;-88
2022/03/07 11:09:27;;;;;;;;;;;;;;;3.33;45.82;99827.50;5291258;27;34843;-87
2022/03/07 11:11:55;;;;;;;;;;;;;;;3.25;45.83;99829.94;5292096;27;34938;-87
2022/03/07 11:14:25;;;;;;;;;;;;;;;3.22;46.13;99816.19;5291559;27;35113;-86
2022/03/07 11:16:56;;;;;;;;;;;;;;;3.18;45.78;99826.37;5291843;27;33463;-86
2022/03/07 11:19:25;;;;;;;;;;;;;;;3.11;46.70;99816.84;5296139;27;34132;-86
2022/03/07 11:21:54;;;;;;;;;;;;;;;3.70;45.01;99807.62;5291183;27;34175;-86
2022/03/07 11:24:25;;;;;;;;;;;;;;;3.68;44.82;99809.31;5289041;27;33130;-86
2022/03/07 11:26:58;;;;;;;;;;;;;;;3.68;44.61;99810.16;5292412;27;33187;-88
2022/03/07 11:29:35;;;;;;;;;;;;;;;3.67;44.58;99787.03;5291553;27;34551;-87
2022/03/07 11:32:05;;;;;;;;;;;;;;;3.60;44.64;99802.34;5297620;27;34610;-86
2022/03/07 11:34:34;;;;;;;;;;;;;;;3.71;44.58;99786.25;5295947;27;35668;-86
2022/03/07 11:37:03;;;;;;;;;;;;;;;3.28;45.13;99791.53;5291935;27;32853;-86
2022/03/07 11:39:34;;;;;;;;;;;;;;;3.53;44.89;99789.41;5290260;27;34074;-86
2022/03/07 11:42:09;;;;;;;;;;;;;;;3.61;44.36;99787.81;5290840;27;33108;-87
2022/03/07 11:44:42;;;;;;;;;;;;;;;3.75;44.28;99781.22;5292161;27;34250;-87
2022/03/07 11:47:11;;;;;;;;;;;;;;;3.60;44.00;99776.69;5298232;27;33881;-86
2022/03/07 11:49:40;;;;;;;;;;;;;;;3.51;44.45;99775.69;5291178;27;34959;-87
2022/03/07 11:52:09;;;;;;;;;;;;;;;3.57;44.27;99778.34;5291391;27;33859;-85
2022/03/07 11:54:52;;;;;;;;;;;;;;;3.62;43.88;99776.69;5291482;27;34219;-87
2022/03/07 11:57:31;;;;;;;;;;;;;;;3.71;43.65;99776.00;5291181;27;33374;-87
2022/03/07 12:00:10;;;;;;;;;;;;;;;3.82;43.47;99782.19;5291730;27;33765;-87
2022/03/07 12:02:39;;;;;;;;;;;;;;;3.69;43.82;99773.41;5297474;27;34426;-86
2022/03/07 12:05:08;;;;;;;;;;;;;;;3.52;43.76;99777.41;5291205;27;34205;-88
2022/03/07 12:07:36;;;;;;;;;;;;;;;3.36;44.09;99776.28;5291519;27;33155;-87
2022/03/07 12:10:07;;;;;;;;;;;;;;;3.30;44.35;99789.00;5291960;27;33719;-86
2022/03/07 12:12:35;;;;;;;;;;;;;;;3.18;44.50;99787.06;5291270;27;33978;-87
2022/03/07 12:15:08;;;;;;;;;;;;;;;3.29;44.53;99775.31;5295188;27;33781;-86
2022/03/07 12:17:36;;;;;;;;;;;;;;;3.16;44.73;99779.34;5296986;27;33383;-87
2022/03/07 12:20:06;;;;;;;;;;;;;;;3.26;44.81;99780.37;5310100;27;34148;-86
2022/03/07 12:22:35;;;;;;;;;;;;;;;3.58;43.77;99773.25;5312949;27;34206;-86
2022/03/07 12:25:05;;;;;;;;;;;;;;;3.59;44.01;99766.41;5293604;27;34577;-87
2022/03/07 12:27:38;;;;;;;;;;;;;;;3.73;43.26;99764.91;5313996;27;33040;-85
2022/03/07 12:30:07;;;;;;;;;;;;;;;3.80;43.46;99769.31;5320722;27;34098;-86
2022/03/07 12:32:39;;;;;;;;;;;;;;;3.88;43.22;99756.59;5314323;27;33849;-87
2022/03/07 12:35:09;;;;;;;;;;;;;;;3.69;43.62;99759.72;5314185;27;33784;-86
2022/03/07 12:37:38;;;;;;;;;;;;;;;3.29;44.51;99764.19;5293042;27;33844;-86
2022/03/07 12:40:09;;;;;;;;;;;;;;;3.55;44.19;99756.91;5294086;27;34119;-86
2022/03/07 12:42:42;;;;;;;;;;;;;;;3.60;43.79;99753.59;5320160;27;33255;-86
2022/03/07 12:45:11;;;;;;;;;;;;;;;3.56;43.68;99758.66;5319957;27;34030;-87
2022/03/07 12:47:40;;;;;;;;;;;;;;;3.70;43.70;99764.87;5293990;27;33738;-85
2022/03/07 12:50:10;;;;;;;;;;;;;;;3.57;43.50;99758.66;5313884;27;34139;-85
2022/03/07 12:52:40;;;;;;;;;;;;;;;3.83;42.83;99760.78;5313374;27;34340;-86
2022/03/07 12:55:09;;;;;;;;;;;;;;;3.98;42.73;99761.00;5312868;27;34212;-86
2022/03/07 12:57:38;;;;;;;;;;;;;;;3.84;42.79;99755.69;5319859;27;33390;-86
2022/03/07 13:00:08;;;;;;;;;;;;;;;3.57;43.57;99750.97;5312807;27;35697;-85
2022/03/07 13:02:37;;;;;;;;;;;;;;;4.03;42.80;99761.94;5292177;27;35388;-86
2022/03/07 13:05:07;;;;;;;;;;;;;;;3.88;42.52;99761.72;5292145;27;32704;-86
2022/03/07 13:07:35;;;;;;;;;;;;;;;3.54;43.10;99755.22;5312743;27;33373;-85
2022/03/07 13:10:08;;;;;;;;;;;;;;;3.67;43.17;99757.09;5319791;27;33927;-86